sensor_id;sensor_type;location;lat;lon;timestamp;pressure;altitude;pressure_sealevel;temperature;humidity
78210;BME280;67485;48.816;9.930;2023-03-14T00:00:59;95385.34;;;9.58;87.50
78210;BME280;67485;48.816;9.930;2023-03-14T00:03:25;95395.19;;;9.53;87.94
78210;BME280;67485;48.816;9.930;2023-03-14T00:05:51;95384.81;;;9.52;87.89
78210;BME280;67485;48.816;9.930;2023-03-14T00:08:16;95350.94;;;9.49;87.88
78210;BME280;67485;48.816;9.930;2023-03-14T00:10:43;95303.88;;;9.49;88.03
78210;BME280;67485;48.816;9.930;2023-03-14T00:13:09;95289.16;;;9.46;88.27
78210;BME280;67485;48.816;9.930;2023-03-14T00:15:34;95283.53;;;9.36;89.64
78210;BME280;67485;48.816;9.930;2023-03-14T00:18:00;95267.34;;;9.28;90.17
78210;BME280;67485;48.816;9.930;2023-03-14T00:20:26;95265.59;;;9.29;90.34
78210;BME280;67485;48.816;9.930;2023-03-14T00:22:52;95262.22;;;9.27;90.20
78210;BME280;67485;48.816;9.930;2023-03-14T00:25:18;95258.25;;;9.37;88.14
78210;BME280;67485;48.816;9.930;2023-03-14T00:27:44;95265.34;;;9.52;85.79
78210;BME280;67485;48.816;9.930;2023-03-14T00:30:12;95266.28;;;9.51;86.61
78210;BME280;67485;48.816;9.930;2023-03-14T00:32:38;95267.13;;;9.52;86.83
78210;BME280;67485;48.816;9.930;2023-03-14T00:35:04;95259.22;;;9.53;86.12
78210;BME280;67485;48.816;9.930;2023-03-14T00:37:29;95223.59;;;9.51;86.60
78210;BME280;67485;48.816;9.930;2023-03-14T00:39:55;95175.69;;;9.50;85.73
78210;BME280;67485;48.816;9.930;2023-03-14T00:42:21;95180.22;;;9.47;85.78
78210;BME280;67485;48.816;9.930;2023-03-14T00:44:46;95171.47;;;9.48;85.66
78210;BME280;67485;48.816;9.930;2023-03-14T00:47:12;95135.53;;;9.51;84.99
78210;BME280;67485;48.816;9.930;2023-03-14T00:49:38;95092.34;;;9.44;85.33
78210;BME280;67485;48.816;9.930;2023-03-14T00:52:04;95120.16;;;9.45;84.93
78210;BME280;67485;48.816;9.930;2023-03-14T00:54:29;95139.69;;;9.38;85.65
78210;BME280;67485;48.816;9.930;2023-03-14T00:56:56;95151.44;;;9.29;86.23
78210;BME280;67485;48.816;9.930;2023-03-14T00:59:21;95163.50;;;9.32;86.15
78210;BME280;67485;48.816;9.930;2023-03-14T01:01:47;95166.88;;;9.34;85.33
78210;BME280;67485;48.816;9.930;2023-03-14T01:04:13;95172.06;;;9.35;84.12
78210;BME280;67485;48.816;9.930;2023-03-14T01:06:39;95183.63;;;9.30;84.25
78210;BME280;67485;48.816;9.930;2023-03-14T01:09:05;95194.09;;;9.30;84.61
78210;BME280;67485;48.816;9.930;2023-03-14T01:11:32;95196.63;;;9.31;85.04
78210;BME280;67485;48.816;9.930;2023-03-14T01:13:58;95216.84;;;9.28;84.50
78210;BME280;67485;48.816;9.930;2023-03-14T01:16:29;95210.06;;;9.23;84.81
78210;BME280;67485;48.816;9.930;2023-03-14T01:18:55;95214.47;;;9.23;85.06
78210;BME280;67485;48.816;9.930;2023-03-14T01:21:23;95199.53;;;9.25;85.38
78210;BME280;67485;48.816;9.930;2023-03-14T01:23:50;95201.94;;;9.30;85.05
78210;BME280;67485;48.816;9.930;2023-03-14T01:26:19;95195.00;;;9.29;84.15
78210;BME280;67485;48.816;9.930;2023-03-14T01:28:45;95194.25;;;9.27;83.55
78210;BME280;67485;48.816;9.930;2023-03-14T01:31:12;95203.84;;;9.26;83.57
78210;BME280;67485;48.816;9.930;2023-03-14T01:33:38;95193.56;;;9.23;83.20
78210;BME280;67485;48.816;9.930;2023-03-14T01:36:04;95192.69;;;9.22;83.80
78210;BME280;67485;48.816;9.930;2023-03-14T01:38:32;95191.00;;;9.21;83.40
78210;BME280;67485;48.816;9.930;2023-03-14T01:40:59;95180.63;;;9.20;82.71
78210;BME280;67485;48.816;9.930;2023-03-14T01:43:25;95169.16;;;9.22;82.93
78210;BME280;67485;48.816;9.930;2023-03-14T01:48:25;95153.44;;;9.24;81.75
78210;BME280;67485;48.816;9.930;2023-03-14T01:50:52;95146.34;;;9.26;81.89
78210;BME280;67485;48.816;9.930;2023-03-14T01:53:18;95155.09;;;9.25;81.95
78210;BME280;67485;48.816;9.930;2023-03-14T01:55:48;95141.81;;;9.30;81.12
78210;BME280;67485;48.816;9.930;2023-03-14T01:58:16;95143.66;;;9.28;81.05
78210;BME280;67485;48.816;9.930;2023-03-14T02:00:43;95130.91;;;9.21;81.54
78210;BME280;67485;48.816;9.930;2023-03-14T02:03:16;95128.34;;;9.20;81.64
78210;BME280;67485;48.816;9.930;2023-03-14T02:05:44;95130.25;;;9.16;81.77
78210;BME280;67485;48.816;9.930;2023-03-14T02:08:20;95138.25;;;9.13;81.62
78210;BME280;67485;48.816;9.930;2023-03-14T02:10:50;95121.78;;;9.11;81.79
78210;BME280;67485;48.816;9.930;2023-03-14T02:13:21;95115.88;;;9.07;81.69
78210;BME280;67485;48.816;9.930;2023-03-14T02:16:05;95111.63;;;9.05;81.87
78210;BME280;67485;48.816;9.930;2023-03-14T02:18:51;95118.44;;;9.09;81.66
78210;BME280;67485;48.816;9.930;2023-03-14T02:22:00;95104.38;;;9.12;81.51
78210;BME280;67485;48.816;9.930;2023-03-14T02:27:13;95090.69;;;9.06;81.61
78210;BME280;67485;48.816;9.930;2023-03-14T02:32:14;95086.91;;;9.12;80.91
78210;BME280;67485;48.816;9.930;2023-03-14T02:34:43;95093.66;;;9.16;80.62
78210;BME280;67485;48.816;9.930;2023-03-14T02:37:13;95093.84;;;9.13;80.87
78210;BME280;67485;48.816;9.930;2023-03-14T02:39:44;95094.06;;;9.26;80.27
78210;BME280;67485;48.816;9.930;2023-03-14T02:42:12;95086.47;;;9.21;80.34
78210;BME280;67485;48.816;9.930;2023-03-14T02:45:25;95081.38;;;9.18;80.58
78210;BME280;67485;48.816;9.930;2023-03-14T02:47:53;95082.09;;;9.22;80.55
78210;BME280;67485;48.816;9.930;2023-03-14T02:50:22;95067.25;;;9.22;80.79
78210;BME280;67485;48.816;9.930;2023-03-14T02:52:49;95061.09;;;9.23;80.70
78210;BME280;67485;48.816;9.930;2023-03-14T02:55:20;95056.47;;;9.29;79.78
78210;BME280;67485;48.816;9.930;2023-03-14T02:57:47;95065.41;;;9.24;80.54
78210;BME280;67485;48.816;9.930;2023-03-14T03:00:13;95079.25;;;9.27;80.77
78210;BME280;67485;48.816;9.930;2023-03-14T03:02:40;95068.94;;;9.23;80.95
78210;BME280;67485;48.816;9.930;2023-03-14T03:05:06;95065.25;;;9.28;80.57
78210;BME280;67485;48.816;9.930;2023-03-14T03:07:32;95072.03;;;9.32;80.28
78210;BME280;67485;48.816;9.930;2023-03-14T03:09:58;95070.34;;;9.31;80.28
78210;BME280;67485;48.816;9.930;2023-03-14T03:12:24;95060.66;;;9.33;80.20
78210;BME280;67485;48.816;9.930;2023-03-14T03:14:50;95060.72;;;9.31;80.21
78210;BME280;67485;48.816;9.930;2023-03-14T03:17:15;95062.41;;;9.32;80.65
78210;BME280;67485;48.816;9.930;2023-03-14T03:19:42;95059.78;;;9.32;80.49
78210;BME280;67485;48.816;9.930;2023-03-14T03:22:09;95065.81;;;9.34;80.33
78210;BME280;67485;48.816;9.930;2023-03-14T03:24:35;95057.09;;;9.34;80.42
78210;BME280;67485;48.816;9.930;2023-03-14T03:27:01;95061.41;;;9.35;80.34
78210;BME280;67485;48.816;9.930;2023-03-14T03:29:27;95048.41;;;9.33;80.34
78210;BME280;67485;48.816;9.930;2023-03-14T03:31:53;95038.97;;;9.31;80.28
78210;BME280;67485;48.816;9.930;2023-03-14T03:34:19;95033.75;;;9.31;80.17
78210;BME280;67485;48.816;9.930;2023-03-14T03:36:48;95018.06;;;9.31;80.24
78210;BME280;67485;48.816;9.930;2023-03-14T03:39:14;95012.75;;;9.32;79.45
78210;BME280;67485;48.816;9.930;2023-03-14T03:41:40;95014.53;;;9.32;80.17
78210;BME280;67485;48.816;9.930;2023-03-14T03:44:05;95018.97;;;9.30;80.46
78210;BME280;67485;48.816;9.930;2023-03-14T03:46:32;95017.38;;;9.27;80.08
78210;BME280;67485;48.816;9.930;2023-03-14T03:48:59;95011.00;;;9.33;79.91
78210;BME280;67485;48.816;9.930;2023-03-14T03:51:26;95012.81;;;9.31;79.80
78210;BME280;67485;48.816;9.930;2023-03-14T03:53:52;95000.69;;;9.30;80.11
78210;BME280;67485;48.816;9.930;2023-03-14T03:56:24;95007.75;;;9.28;80.18
78210;BME280;67485;48.816;9.930;2023-03-14T03:58:50;94999.16;;;9.25;80.16
78210;BME280;67485;48.816;9.930;2023-03-14T04:01:16;95000.97;;;9.23;80.33
78210;BME280;67485;48.816;9.930;2023-03-14T04:03:45;95005.47;;;9.21;80.28
78210;BME280;67485;48.816;9.930;2023-03-14T04:06:12;94999.28;;;9.22;80.46
78210;BME280;67485;48.816;9.930;2023-03-14T04:08:40;95007.13;;;9.22;80.57
78210;BME280;67485;48.816;9.930;2023-03-14T04:11:15;95009.75;;;9.22;80.55
78210;BME280;67485;48.816;9.930;2023-03-14T04:13:59;95006.69;;;9.14;80.66
78210;BME280;67485;48.816;9.930;2023-03-14T04:16:26;95003.50;;;9.07;80.83
78210;BME280;67485;48.816;9.930;2023-03-14T04:18:58;95011.53;;;9.04;80.64
78210;BME280;67485;48.816;9.930;2023-03-14T04:21:23;95010.44;;;9.08;80.10
78210;BME280;67485;48.816;9.930;2023-03-14T04:23:54;95016.34;;;9.12;80.24
78210;BME280;67485;48.816;9.930;2023-03-14T04:26:20;95015.91;;;9.04;79.94
78210;BME280;67485;48.816;9.930;2023-03-14T04:28:46;95018.44;;;9.05;79.09
78210;BME280;67485;48.816;9.930;2023-03-14T04:31:16;95009.69;;;9.06;77.98
78210;BME280;67485;48.816;9.930;2023-03-14T04:33:42;95008.75;;;9.07;77.59
78210;BME280;67485;48.816;9.930;2023-03-14T04:36:08;95015.91;;;9.04;77.54
78210;BME280;67485;48.816;9.930;2023-03-14T04:38:35;95019.56;;;9.00;77.12
78210;BME280;67485;48.816;9.930;2023-03-14T04:41:01;95014.97;;;9.05;75.76
78210;BME280;67485;48.816;9.930;2023-03-14T04:43:30;95008.13;;;9.02;75.77
78210;BME280;67485;48.816;9.930;2023-03-14T04:46:04;95010.69;;;9.04;74.75
78210;BME280;67485;48.816;9.930;2023-03-14T04:48:30;95006.50;;;9.00;75.54
78210;BME280;67485;48.816;9.930;2023-03-14T04:50:56;94998.53;;;9.03;74.48
78210;BME280;67485;48.816;9.930;2023-03-14T04:53:22;95002.84;;;9.04;74.78
78210;BME280;67485;48.816;9.930;2023-03-14T04:55:54;94995.31;;;8.98;74.94
78210;BME280;67485;48.816;9.930;2023-03-14T04:58:22;94990.09;;;8.98;74.34
78210;BME280;67485;48.816;9.930;2023-03-14T05:00:49;94990.09;;;8.98;74.77
78210;BME280;67485;48.816;9.930;2023-03-14T05:03:33;94978.94;;;8.94;74.44
78210;BME280;67485;48.816;9.930;2023-03-14T05:06:07;94967.78;;;8.90;74.68
78210;BME280;67485;48.816;9.930;2023-03-14T05:08:44;94964.56;;;8.85;74.94
78210;BME280;67485;48.816;9.930;2023-03-14T05:11:19;94963.56;;;8.88;74.13
78210;BME280;67485;48.816;9.930;2023-03-14T05:14:02;94954.81;;;8.89;74.27
78210;BME280;67485;48.816;9.930;2023-03-14T05:16:50;94942.59;;;8.89;74.05
78210;BME280;67485;48.816;9.930;2023-03-14T05:19:25;94948.13;;;8.83;74.43
78210;BME280;67485;48.816;9.930;2023-03-14T05:22:02;94942.81;;;8.85;73.83
78210;BME280;67485;48.816;9.930;2023-03-14T05:24:51;94943.97;;;8.79;74.33
78210;BME280;67485;48.816;9.930;2023-03-14T05:27:37;94932.84;;;8.75;74.31
78210;BME280;67485;48.816;9.930;2023-03-14T05:30:21;94943.19;;;8.77;73.51
78210;BME280;67485;48.816;9.930;2023-03-14T05:32:47;94931.84;;;8.78;73.71
78210;BME280;67485;48.816;9.930;2023-03-14T05:35:39;94940.59;;;8.77;73.14
78210;BME280;67485;48.816;9.930;2023-03-14T05:38:31;94925.84;;;8.76;72.54
78210;BME280;67485;48.816;9.930;2023-03-14T05:41:09;94928.63;;;8.73;72.88
78210;BME280;67485;48.816;9.930;2023-03-14T05:43:53;94925.09;;;8.74;72.27
78210;BME280;67485;48.816;9.930;2023-03-14T05:46:39;94909.94;;;8.81;71.77
78210;BME280;67485;48.816;9.930;2023-03-14T05:49:25;94913.94;;;8.88;71.59
78210;BME280;67485;48.816;9.930;2023-03-14T05:52:09;94910.63;;;8.84;72.19
78210;BME280;67485;48.816;9.930;2023-03-14T05:54:45;94916.69;;;8.85;72.16
78210;BME280;67485;48.816;9.930;2023-03-14T05:57:45;94921.16;;;8.83;72.11
78210;BME280;67485;48.816;9.930;2023-03-14T06:00:26;94924.47;;;8.86;72.02
78210;BME280;67485;48.816;9.930;2023-03-14T06:03:07;94914.16;;;8.83;71.71
78210;BME280;67485;48.816;9.930;2023-03-14T06:05:36;94914.03;;;8.86;71.28
78210;BME280;67485;48.816;9.930;2023-03-14T06:08:02;94921.78;;;8.88;71.08
78210;BME280;67485;48.816;9.930;2023-03-14T06:10:30;94919.78;;;8.93;71.39
78210;BME280;67485;48.816;9.930;2023-03-14T06:12:56;94909.34;;;8.93;70.90
78210;BME280;67485;48.816;9.930;2023-03-14T06:15:22;94904.94;;;8.93;71.18
78210;BME280;67485;48.816;9.930;2023-03-14T06:17:50;94897.72;;;8.99;71.19
78210;BME280;67485;48.816;9.930;2023-03-14T06:20:16;94896.09;;;8.96;71.06
78210;BME280;67485;48.816;9.930;2023-03-14T06:22:42;94894.03;;;9.03;70.73
78210;BME280;67485;48.816;9.930;2023-03-14T06:25:10;94900.09;;;9.03;70.54
78210;BME280;67485;48.816;9.930;2023-03-14T06:27:35;94890.34;;;9.07;70.18
78210;BME280;67485;48.816;9.930;2023-03-14T06:30:02;94888.31;;;9.12;69.91
78210;BME280;67485;48.816;9.930;2023-03-14T06:32:30;94887.50;;;9.12;69.83
78210;BME280;67485;48.816;9.930;2023-03-14T06:34:59;94899.69;;;9.11;70.28
78210;BME280;67485;48.816;9.930;2023-03-14T06:37:27;94907.53;;;9.11;70.82
78210;BME280;67485;48.816;9.930;2023-03-14T06:39:54;94910.91;;;9.13;70.48
78210;BME280;67485;48.816;9.930;2023-03-14T06:42:46;94912.44;;;9.17;71.02
78210;BME280;67485;48.816;9.930;2023-03-14T06:45:14;94913.13;;;9.21;70.79
78210;BME280;67485;48.816;9.930;2023-03-14T06:47:39;94916.25;;;9.28;70.89
78210;BME280;67485;48.816;9.930;2023-03-14T06:50:07;94920.56;;;9.29;70.84
78210;BME280;67485;48.816;9.930;2023-03-14T06:52:33;94917.91;;;9.30;70.88
78210;BME280;67485;48.816;9.930;2023-03-14T06:54:59;94919.50;;;9.33;71.36
78210;BME280;67485;48.816;9.930;2023-03-14T06:57:26;94920.94;;;9.38;71.23
78210;BME280;67485;48.816;9.930;2023-03-14T06:59:52;94924.56;;;9.36;71.41
78210;BME280;67485;48.816;9.930;2023-03-14T07:02:18;94916.81;;;9.34;70.96
78210;BME280;67485;48.816;9.930;2023-03-14T07:04:43;94911.50;;;9.36;71.20
78210;BME280;67485;48.816;9.930;2023-03-14T07:07:09;94919.41;;;9.34;71.32
78210;BME280;67485;48.816;9.930;2023-03-14T07:09:35;94916.41;;;9.42;70.56
78210;BME280;67485;48.816;9.930;2023-03-14T07:12:02;94917.78;;;9.49;70.64
78210;BME280;67485;48.816;9.930;2023-03-14T07:14:30;94919.53;;;9.49;70.10
78210;BME280;67485;48.816;9.930;2023-03-14T07:16:55;94926.63;;;9.47;69.77
78210;BME280;67485;48.816;9.930;2023-03-14T07:19:21;94927.38;;;9.49;69.79
78210;BME280;67485;48.816;9.930;2023-03-14T07:21:47;94921.81;;;9.55;69.35
78210;BME280;67485;48.816;9.930;2023-03-14T07:24:15;94921.44;;;9.45;69.68
78210;BME280;67485;48.816;9.930;2023-03-14T07:26:41;94934.38;;;9.48;69.80
78210;BME280;67485;48.816;9.930;2023-03-14T07:29:07;94925.63;;;9.49;69.99
78210;BME280;67485;48.816;9.930;2023-03-14T07:31:33;94934.66;;;9.60;69.64
78210;BME280;67485;48.816;9.930;2023-03-14T07:33:59;94932.63;;;9.65;69.67
78210;BME280;67485;48.816;9.930;2023-03-14T07:36:29;94942.78;;;9.71;69.35
78210;BME280;67485;48.816;9.930;2023-03-14T07:38:55;94943.63;;;9.87;69.02
78210;BME280;67485;48.816;9.930;2023-03-14T07:41:32;94946.84;;;9.93;69.00
78210;BME280;67485;48.816;9.930;2023-03-14T07:44:21;94941.34;;;9.81;69.13
78210;BME280;67485;48.816;9.930;2023-03-14T07:46:46;94953.69;;;9.79;69.65
78210;BME280;67485;48.816;9.930;2023-03-14T07:49:12;94942.81;;;9.87;68.99
78210;BME280;67485;48.816;9.930;2023-03-14T07:51:38;94941.13;;;10.02;68.66
78210;BME280;67485;48.816;9.930;2023-03-14T07:54:03;94940.97;;;10.21;67.82
78210;BME280;67485;48.816;9.930;2023-03-14T07:56:29;94951.13;;;10.43;67.63
78210;BME280;67485;48.816;9.930;2023-03-14T07:58:55;94947.28;;;10.65;66.81
78210;BME280;67485;48.816;9.930;2023-03-14T08:01:21;94949.75;;;10.68;66.57
78210;BME280;67485;48.816;9.930;2023-03-14T08:03:47;94941.41;;;10.92;65.94
78210;BME280;67485;48.816;9.930;2023-03-14T08:06:13;94944.59;;;10.97;65.07
78210;BME280;67485;48.816;9.930;2023-03-14T08:08:39;94952.47;;;10.97;64.37
78210;BME280;67485;48.816;9.930;2023-03-14T08:11:06;94953.81;;;11.18;63.82
78210;BME280;67485;48.816;9.930;2023-03-14T08:13:35;94951.59;;;11.27;63.29
78210;BME280;67485;48.816;9.930;2023-03-14T08:16:00;94953.25;;;11.28;63.63
78210;BME280;67485;48.816;9.930;2023-03-14T08:18:26;94954.69;;;11.48;63.34
78210;BME280;67485;48.816;9.930;2023-03-14T08:20:52;94952.47;;;11.85;62.54
78210;BME280;67485;48.816;9.930;2023-03-14T08:23:17;94945.66;;;11.68;61.72
78210;BME280;67485;48.816;9.930;2023-03-14T08:25:43;94945.81;;;11.94;62.15
78210;BME280;67485;48.816;9.930;2023-03-14T08:28:09;94936.56;;;11.88;62.38
78210;BME280;67485;48.816;9.930;2023-03-14T08:30:34;94934.00;;;11.87;61.09
78210;BME280;67485;48.816;9.930;2023-03-14T08:33:00;94944.69;;;12.12;61.64
78210;BME280;67485;48.816;9.930;2023-03-14T08:35:26;94929.00;;;12.25;60.29
78210;BME280;67485;48.816;9.930;2023-03-14T08:37:52;94939.44;;;11.98;60.37
78210;BME280;67485;48.816;9.930;2023-03-14T08:40:21;94927.84;;;12.02;60.93
78210;BME280;67485;48.816;9.930;2023-03-14T08:42:47;94934.75;;;12.18;60.60
78210;BME280;67485;48.816;9.930;2023-03-14T08:45:14;94928.53;;;12.60;58.99
78210;BME280;67485;48.816;9.930;2023-03-14T08:47:40;94941.34;;;11.96;59.68
78210;BME280;67485;48.816;9.930;2023-03-14T08:50:07;94941.69;;;11.90;60.29
78210;BME280;67485;48.816;9.930;2023-03-14T08:52:32;94941.34;;;11.96;61.09
78210;BME280;67485;48.816;9.930;2023-03-14T08:54:58;94938.03;;;11.92;60.73
78210;BME280;67485;48.816;9.930;2023-03-14T08:57:24;94941.13;;;12.13;60.77
78210;BME280;67485;48.816;9.930;2023-03-14T08:59:54;94931.09;;;12.20;59.45
78210;BME280;67485;48.816;9.930;2023-03-14T09:02:21;94934.38;;;12.51;59.94
78210;BME280;67485;48.816;9.930;2023-03-14T09:04:47;94935.28;;;12.37;59.16
78210;BME280;67485;48.816;9.930;2023-03-14T09:07:12;94940.63;;;12.36;59.81
78210;BME280;67485;48.816;9.930;2023-03-14T09:09:38;94936.56;;;12.44;59.51
78210;BME280;67485;48.816;9.930;2023-03-14T09:12:04;94938.16;;;12.47;58.90
78210;BME280;67485;48.816;9.930;2023-03-14T09:14:30;94941.97;;;12.56;58.80
78210;BME280;67485;48.816;9.930;2023-03-14T09:16:57;94943.94;;;12.79;58.50
78210;BME280;67485;48.816;9.930;2023-03-14T09:19:23;94935.91;;;12.68;58.09
78210;BME280;67485;48.816;9.930;2023-03-14T09:21:49;94927.47;;;12.63;57.86
78210;BME280;67485;48.816;9.930;2023-03-14T09:24:15;94936.31;;;12.62;57.50
78210;BME280;67485;48.816;9.930;2023-03-14T09:26:41;94944.63;;;12.96;57.01
78210;BME280;67485;48.816;9.930;2023-03-14T09:29:07;94940.28;;;13.48;55.67
78210;BME280;67485;48.816;9.930;2023-03-14T09:31:33;94929.28;;;14.19;53.22
78210;BME280;67485;48.816;9.930;2023-03-14T09:33:58;94923.97;;;14.56;52.00
78210;BME280;67485;48.816;9.930;2023-03-14T09:36:24;94929.44;;;14.41;52.38
78210;BME280;67485;48.816;9.930;2023-03-14T09:38:50;94924.72;;;15.06;51.42
78210;BME280;67485;48.816;9.930;2023-03-14T09:41:22;94918.44;;;14.48;51.79
78210;BME280;67485;48.816;9.930;2023-03-14T09:44:02;94920.47;;;13.94;53.12
78210;BME280;67485;48.816;9.930;2023-03-14T09:46:31;94919.66;;;13.68;54.13
78210;BME280;67485;48.816;9.930;2023-03-14T09:48:59;94922.47;;;14.40;52.42
78210;BME280;67485;48.816;9.930;2023-03-14T09:51:25;94924.09;;;14.67;52.37
78210;BME280;67485;48.816;9.930;2023-03-14T09:53:51;94927.47;;;14.56;52.42
78210;BME280;67485;48.816;9.930;2023-03-14T09:56:23;94930.97;;;14.07;53.57
78210;BME280;67485;48.816;9.930;2023-03-14T09:59:00;94925.94;;;14.04;54.28
78210;BME280;67485;48.816;9.930;2023-03-14T10:01:28;94936.63;;;14.26;53.71
78210;BME280;67485;48.816;9.930;2023-03-14T10:03:56;94930.47;;;14.15;53.91
78210;BME280;67485;48.816;9.930;2023-03-14T10:06:27;94928.28;;;13.95;54.99
78210;BME280;67485;48.816;9.930;2023-03-14T10:08:54;94925.19;;;14.02;54.83
78210;BME280;67485;48.816;9.930;2023-03-14T10:11:20;94923.00;;;14.08;54.52
78210;BME280;67485;48.816;9.930;2023-03-14T10:14:01;94915.94;;;14.33;53.73
78210;BME280;67485;48.816;9.930;2023-03-14T10:16:30;94919.50;;;14.45;53.65
78210;BME280;67485;48.816;9.930;2023-03-14T10:19:10;94933.69;;;14.31;53.64
78210;BME280;67485;48.816;9.930;2023-03-14T10:21:38;94929.88;;;14.35;54.20
78210;BME280;67485;48.816;9.930;2023-03-14T10:24:27;94935.97;;;14.36;55.14
78210;BME280;67485;48.816;9.930;2023-03-14T10:26:58;94936.25;;;14.20;55.34
78210;BME280;67485;48.816;9.930;2023-03-14T10:29:26;94938.22;;;14.66;54.40
78210;BME280;67485;48.816;9.930;2023-03-14T10:31:54;94930.91;;;14.94;53.23
78210;BME280;67485;48.816;9.930;2023-03-14T10:34:24;94922.31;;;14.18;52.69
78210;BME280;67485;48.816;9.930;2023-03-14T10:36:59;94942.28;;;13.96;54.02
78210;BME280;67485;48.816;9.930;2023-03-14T10:39:26;94943.75;;;14.00;53.66
78210;BME280;67485;48.816;9.930;2023-03-14T10:42:04;94947.66;;;14.07;53.97
78210;BME280;67485;48.816;9.930;2023-03-14T10:44:31;94924.50;;;13.87;54.73
78210;BME280;67485;48.816;9.930;2023-03-14T10:47:02;94946.19;;;13.52;55.81
78210;BME280;67485;48.816;9.930;2023-03-14T10:49:33;94947.78;;;13.54;55.50
78210;BME280;67485;48.816;9.930;2023-03-14T10:52:26;94954.91;;;13.39;56.14
78210;BME280;67485;48.816;9.930;2023-03-14T10:55:01;94939.78;;;15.29;52.12
78210;BME280;67485;48.816;9.930;2023-03-14T10:57:28;94933.97;;;17.05;47.96
78210;BME280;67485;48.816;9.930;2023-03-14T10:59:55;94921.50;;;17.80;45.40
78210;BME280;67485;48.816;9.930;2023-03-14T11:02:32;94917.94;;;18.22;44.59
78210;BME280;67485;48.816;9.930;2023-03-14T11:05:21;94926.22;;;17.34;45.46
78210;BME280;67485;48.816;9.930;2023-03-14T11:07:52;94933.13;;;17.26;44.96
78210;BME280;67485;48.816;9.930;2023-03-14T11:10:20;94921.56;;;17.90;44.94
78210;BME280;67485;48.816;9.930;2023-03-14T11:15:58;94927.47;;;19.24;42.16
78210;BME280;67485;48.816;9.930;2023-03-14T11:21:23;94937.03;;;17.43;45.24
78210;BME280;67485;48.816;9.930;2023-03-14T11:29:21;94948.78;;;15.26;50.34
78210;BME280;67485;48.816;9.930;2023-03-14T11:31:49;94940.53;;;14.58;52.12
78210;BME280;67485;48.816;9.930;2023-03-14T11:34:27;94941.50;;;14.20;53.81
78210;BME280;67485;48.816;9.930;2023-03-14T11:37:06;94955.47;;;13.96;54.65
78210;BME280;67485;48.816;9.930;2023-03-14T11:39:41;94970.63;;;13.67;56.07
78210;BME280;67485;48.816;9.930;2023-03-14T11:42:15;94965.34;;;13.41;58.71
78210;BME280;67485;48.816;9.930;2023-03-14T11:44:45;94976.41;;;13.06;63.08
78210;BME280;67485;48.816;9.930;2023-03-14T11:47:29;94973.19;;;12.88;64.01
78210;BME280;67485;48.816;9.930;2023-03-14T11:50:18;94989.81;;;12.61;65.73
78210;BME280;67485;48.816;9.930;2023-03-14T11:52:51;94989.09;;;12.44;67.19
78210;BME280;67485;48.816;9.930;2023-03-14T11:55:27;94992.88;;;12.26;69.18
78210;BME280;67485;48.816;9.930;2023-03-14T11:58:01;94990.44;;;11.94;70.24
78210;BME280;67485;48.816;9.930;2023-03-14T12:00:29;94997.19;;;11.83;70.42
78210;BME280;67485;48.816;9.930;2023-03-14T12:08:59;95005.56;;;11.45;74.02
78210;BME280;67485;48.816;9.930;2023-03-14T12:11:50;95018.25;;;11.23;74.54
78210;BME280;67485;48.816;9.930;2023-03-14T12:14:23;95009.31;;;11.11;75.77
78210;BME280;67485;48.816;9.930;2023-03-14T12:16:56;95023.38;;;10.94;77.20
78210;BME280;67485;48.816;9.930;2023-03-14T12:24:30;95020.50;;;10.98;77.50
78210;BME280;67485;48.816;9.930;2023-03-14T12:27:02;95018.84;;;10.81;77.99
78210;BME280;67485;48.816;9.930;2023-03-14T12:29:28;95018.88;;;10.65;78.37
78210;BME280;67485;48.816;9.930;2023-03-14T12:34:39;95024.16;;;10.64;78.86
78210;BME280;67485;48.816;9.930;2023-03-14T12:39:58;95037.72;;;10.22;79.77
78210;BME280;67485;48.816;9.930;2023-03-14T12:42:45;95039.75;;;10.17;80.69
78210;BME280;67485;48.816;9.930;2023-03-14T12:48:10;95044.47;;;10.11;81.53
78210;BME280;67485;48.816;9.930;2023-03-14T12:50:46;95051.72;;;10.05;81.94
78210;BME280;67485;48.816;9.930;2023-03-14T13:01:05;95054.13;;;9.93;83.04
78210;BME280;67485;48.816;9.930;2023-03-14T13:03:43;95063.84;;;9.90;82.78
78210;BME280;67485;48.816;9.930;2023-03-14T13:06:11;95073.00;;;9.82;82.20
78210;BME280;67485;48.816;9.930;2023-03-14T13:08:41;95070.31;;;9.83;81.79
78210;BME280;67485;48.816;9.930;2023-03-14T13:11:10;95077.34;;;9.99;80.75
78210;BME280;67485;48.816;9.930;2023-03-14T13:13:42;95080.56;;;10.04;80.09
78210;BME280;67485;48.816;9.930;2023-03-14T13:16:15;95100.88;;;10.16;79.77
78210;BME280;67485;48.816;9.930;2023-03-14T13:18:59;95092.09;;;10.17;80.78
78210;BME280;67485;48.816;9.930;2023-03-14T13:21:27;95096.69;;;10.30;74.94
78210;BME280;67485;48.816;9.930;2023-03-14T13:26:25;95130.63;;;10.65;72.38
78210;BME280;67485;48.816;9.930;2023-03-14T13:28:51;95167.59;;;10.25;71.57
78210;BME280;67485;48.816;9.930;2023-03-14T13:31:22;95187.47;;;10.29;72.20
78210;BME280;67485;48.816;9.930;2023-03-14T13:34:04;95199.88;;;9.90;70.60
78210;BME280;67485;48.816;9.930;2023-03-14T13:36:30;95220.19;;;9.68;71.74
78210;BME280;67485;48.816;9.930;2023-03-14T13:38:58;95239.13;;;9.54;71.50
78210;BME280;67485;48.816;9.930;2023-03-14T13:41:25;95252.28;;;9.52;69.62
78210;BME280;67485;48.816;9.930;2023-03-14T13:43:51;95240.19;;;9.86;68.44
78210;BME280;67485;48.816;9.930;2023-03-14T13:46:22;95249.94;;;10.37;68.74
78210;BME280;67485;48.816;9.930;2023-03-14T13:48:54;95237.16;;;10.48;66.09
78210;BME280;67485;48.816;9.930;2023-03-14T13:51:21;95261.63;;;10.47;62.63
78210;BME280;67485;48.816;9.930;2023-03-14T13:53:49;95253.97;;;10.60;61.60
78210;BME280;67485;48.816;9.930;2023-03-14T13:56:23;95254.88;;;10.43;60.97
78210;BME280;67485;48.816;9.930;2023-03-14T13:58:50;95263.13;;;10.16;61.20
78210;BME280;67485;48.816;9.930;2023-03-14T14:01:26;95277.84;;;9.65;58.64
78210;BME280;67485;48.816;9.930;2023-03-14T14:03:56;95292.06;;;9.40;58.88
78210;BME280;67485;48.816;9.930;2023-03-14T14:08:54;95309.09;;;9.11;59.94
78210;BME280;67485;48.816;9.930;2023-03-14T14:11:38;95314.75;;;9.20;59.77
78210;BME280;67485;48.816;9.930;2023-03-14T14:14:11;95327.56;;;9.27;58.20